Time;durP1;ratioP1;P1;durP2;ratioP2;P2;SDS_P1;SDS_P2;PMS_P1;PMS_P2;Temp;Humidity;BMP_temperature;BMP_pressure;BME280_temperature;BME280_humidity;BME280_pressure;Samples;Min_cycle;Max_cycle;Signal;HPM_P1;HPM_P2
2022/04/04 00:00:59;;;;;;;15.73;1.52;;;5.30;71.40;;;;;;4107411;28;20061;-84
2022/04/04 00:02:59;;;;;;;11.88;2.45;;;5.20;71.50;;;;;;4091658;28;20120;-86
2022/04/04 00:05:01;;;;;;;22.95;1.80;;;5.20;71.60;;;;;;4089677;28;20041;-84
2022/04/04 00:07:02;;;;;;;13.27;1.70;;;5.20;71.50;;;;;;4107190;28;20370;-86
2022/04/04 00:09:03;;;;;;;20.25;1.67;;;5.20;71.60;;;;;;4108939;28;20031;-85
2022/04/04 00:11:04;;;;;;;10.95;1.30;;;5.20;71.60;;;;;;4094063;28;20027;-86
2022/04/04 00:13:05;;;;;;;5.43;1.10;;;5.30;71.60;;;;;;4120800;28;20029;-84
2022/04/04 00:15:06;;;;;;;7.75;1.30;;;5.20;71.60;;;;;;4092910;28;20031;-85
2022/04/04 00:17:07;;;;;;;6.60;1.25;;;5.20;71.50;;;;;;4105646;28;20039;-86
2022/04/04 00:19:09;;;;;;;9.80;1.38;;;5.30;71.60;;;;;;4069980;29;20074;-86
2022/04/04 00:21:10;;;;;;;10.50;1.75;;;5.20;71.60;;;;;;4124002;28;20026;-84
2022/04/04 00:23:14;;;;;;;11.63;1.35;;;5.10;71.50;;;;;;4113258;28;20027;-87
2022/04/04 00:25:14;;;;;;;15.55;1.80;;;5.20;71.70;;;;;;4106667;28;20059;-83
2022/04/04 00:27:15;;;;;;;10.27;1.40;;;5.30;71.80;;;;;;4105755;28;20058;-84
2022/04/04 00:29:16;;;;;;;14.35;1.65;;;5.30;71.80;;;;;;4105645;28;20049;-84
2022/04/04 00:31:18;;;;;;;9.50;1.17;;;5.20;72.00;;;;;;4109558;28;20058;-86
2022/04/04 00:33:19;;;;;;;9.05;1.60;;;5.30;72.00;;;;;;4110459;28;20034;-87
2022/04/04 00:35:20;;;;;;;5.93;1.10;;;5.30;72.00;;;;;;4104427;28;20084;-86
2022/04/04 00:37:21;;;;;;;11.30;1.15;;;5.20;71.90;;;;;;4091333;28;20520;-85
2022/04/04 00:39:26;;;;;;;8.80;1.20;;;5.20;71.70;;;;;;4071774;28;20101;-85
2022/04/04 00:41:27;;;;;;;3.83;0.90;;;5.10;71.50;;;;;;4105887;28;20526;-83
2022/04/04 00:43:28;;;;;;;5.82;1.05;;;5.20;71.40;;;;;;4105103;28;20031;-86
2022/04/04 00:45:29;;;;;;;4.68;1.00;;;5.20;71.10;;;;;;4091377;28;20102;-83
2022/04/04 00:47:30;;;;;;;2.13;0.65;;;5.20;71.00;;;;;;4104882;28;20034;-84
2022/04/04 00:49:31;;;;;;;4.80;0.90;;;5.10;70.70;;;;;;4124971;28;20100;-84
2022/04/04 00:51:32;;;;;;;6.88;0.95;;;5.10;70.50;;;;;;4083242;28;20188;-83
2022/04/04 00:53:33;;;;;;;4.05;0.90;;;5.10;70.30;;;;;;4118721;28;20481;-83
2022/04/04 00:55:33;;;;;;;3.67;0.85;;;5.00;70.00;;;;;;4105057;28;20176;-84
2022/04/04 00:57:38;;;;;;;3.65;0.90;;;5.00;69.80;;;;;;4122059;28;20637;-85
2022/04/04 00:59:41;;;;;;;6.82;0.98;;;4.90;69.70;;;;;;4104493;28;20094;-84
2022/04/04 01:01:42;;;;;;;3.55;0.77;;;5.00;69.70;;;;;;4104228;28;20037;-84
2022/04/04 01:03:42;;;;;;;6.10;1.08;;;4.90;69.80;;;;;;4115279;28;20108;-86
2022/04/04 01:05:44;;;;;;;6.85;1.10;;;4.90;69.70;;;;;;4122754;28;20235;-85
2022/04/04 01:07:45;;;;;;;9.55;1.50;;;5.00;69.80;;;;;;4103102;28;20703;-84
2022/04/04 01:09:47;;;;;;;2.58;0.90;;;4.90;69.90;;;;;;4123346;28;20042;-84
2022/04/04 01:12:09;;;;;;;5.60;1.20;;;4.90;70.10;;;;;;4124307;28;20404;-84
2022/04/04 01:14:12;;;;;;;5.82;1.13;;;4.80;70.10;;;;;;4119892;28;20057;-85
2022/04/04 01:16:13;;;;;;;8.30;1.50;;;4.90;70.30;;;;;;4090180;28;20027;-86
2022/04/04 01:18:14;;;;;;;13.10;1.50;;;4.90;70.50;;;;;;4110532;28;20531;-86
2022/04/04 01:20:15;;;;;;;10.80;1.30;;;4.80;70.70;;;;;;4107269;28;20332;-84
2022/04/04 01:22:16;;;;;;;6.50;0.93;;;4.90;70.70;;;;;;4091975;28;20091;-86
2022/04/04 01:24:21;;;;;;;6.15;1.05;;;4.90;70.90;;;;;;4104840;28;20053;-83
2022/04/04 01:26:22;;;;;;;11.35;1.70;;;4.80;71.50;;;;;;4088726;28;20019;-83
2022/04/04 01:28:30;;;;;;;13.18;1.73;;;4.90;71.00;;;;;;4103971;28;20027;-83
2022/04/04 01:30:34;;;;;;;10.38;1.17;;;4.90;71.10;;;;;;4105115;28;20043;-83
2022/04/04 01:32:35;;;;;;;9.18;1.10;;;4.90;71.10;;;;;;4103350;28;20031;-84
2022/04/04 01:34:36;;;;;;;16.88;1.70;;;4.80;71.10;;;;;;4123441;28;20038;-86
2022/04/04 01:36:36;;;;;;;9.20;1.50;;;4.80;71.40;;;;;;4106974;28;20034;-86
2022/04/04 01:38:37;;;;;;;12.38;1.40;;;4.80;71.30;;;;;;4122710;28;20523;-84
2022/04/04 01:40:38;;;;;;;15.90;1.85;;;4.80;71.40;;;;;;4122880;28;20445;-84
2022/04/04 01:42:39;;;;;;;6.85;1.30;;;4.80;71.60;;;;;;4126238;28;20054;-84
2022/04/04 01:44:40;;;;;;;7.25;1.35;;;4.90;71.70;;;;;;4088746;28;20031;-83
2022/04/04 01:46:41;;;;;;;13.55;1.70;;;4.90;71.70;;;;;;4122285;28;20476;-84
2022/04/04 01:48:42;;;;;;;10.98;1.45;;;4.80;71.60;;;;;;4123965;28;20046;-84
2022/04/04 01:50:43;;;;;;;10.93;1.65;;;4.80;71.70;;;;;;4107535;28;20567;-83
2022/04/04 01:53:25;;;;;;;6.60;1.27;;;4.90;71.80;;;;;;4125197;28;20041;-87
2022/04/04 01:55:05;;;;;;;10.90;1.30;;;4.90;71.80;;;;;;4123354;28;20407;-86
2022/04/04 01:57:06;;;;;;;7.18;1.20;;;4.90;71.60;;;;;;4124418;28;20420;-87
2022/04/04 01:59:06;;;;;;;14.27;1.55;;;4.90;71.70;;;;;;4108265;28;20500;-84
2022/04/04 02:01:33;;;;;;;11.80;1.42;;;4.90;71.70;;;;;;4107215;28;20033;-85
2022/04/04 02:03:36;;;;;;;14.77;2.38;;;4.90;71.80;;;;;;4077872;29;20035;-85
2022/04/04 02:05:37;;;;;;;13.43;1.55;;;4.90;71.70;;;;;;4107594;28;20019;-85
2022/04/04 02:07:38;;;;;;;12.05;1.52;;;4.90;71.80;;;;;;4125341;28;20400;-84
2022/04/04 02:09:39;;;;;;;6.97;1.30;;;5.00;71.90;;;;;;4111568;28;20027;-84
2022/04/04 02:11:40;;;;;;;11.40;1.90;;;5.00;72.00;;;;;;4105623;28;20058;-87
2022/04/04 02:13:41;;;;;;;12.43;1.73;;;4.90;72.00;;;;;;4121042;28;20124;-85
2022/04/04 02:15:42;;;;;;;7.93;1.17;;;5.00;72.00;;;;;;4108752;28;20040;-83
2022/04/04 02:17:46;;;;;;;11.60;1.92;;;5.00;72.00;;;;;;4108567;28;20031;-84
2022/04/04 02:19:49;;;;;;;18.67;1.83;;;5.00;72.00;;;;;;4093476;28;20035;-84
2022/04/04 02:21:50;;;;;;;10.65;1.60;;;5.00;72.00;;;;;;4121634;28;20023;-86
2022/04/04 02:23:52;;;;;;;12.25;1.95;;;5.00;72.00;;;;;;4094360;28;20027;-86
2022/04/04 02:25:57;;;;;;;11.43;1.63;;;5.10;72.00;;;;;;4108173;28;20038;-84
2022/04/04 02:27:58;;;;;;;11.25;1.70;;;5.10;71.80;;;;;;4108260;28;20042;-86
2022/04/04 02:29:59;;;;;;;18.42;2.10;;;5.10;71.80;;;;;;4091562;28;20452;-83
2022/04/04 02:32:00;;;;;;;10.48;2.00;;;5.10;71.80;;;;;;4108467;28;20521;-87
2022/04/04 02:34:00;;;;;;;14.52;1.70;;;5.10;71.70;;;;;;4091869;28;20028;-86
2022/04/04 02:36:05;;;;;;;12.80;1.83;;;5.00;71.70;;;;;;4093599;28;20133;-85
2022/04/04 02:38:07;;;;;;;18.70;1.85;;;5.10;71.70;;;;;;4079902;28;20028;-84
2022/04/04 02:40:09;;;;;;;10.57;1.70;;;5.10;71.60;;;;;;4106793;28;20042;-86
2022/04/04 02:42:10;;;;;;;12.82;2.30;;;5.10;71.70;;;;;;4125558;28;20034;-84
2022/04/04 02:44:11;;;;;;;11.43;1.88;;;5.20;71.70;;;;;;4093934;28;20031;-87
2022/04/04 02:46:12;;;;;;;16.50;2.15;;;5.20;71.60;;;;;;4113785;28;20177;-84
2022/04/04 02:48:16;;;;;;;8.55;1.63;;;5.20;71.60;;;;;;4130400;28;20098;-88
2022/04/04 02:50:17;;;;;;;13.88;2.00;;;5.20;71.60;;;;;;4133651;28;20050;-86
2022/04/04 02:52:21;;;;;;;14.07;1.90;;;5.20;71.60;;;;;;4108853;28;20039;-86
2022/04/04 02:54:22;;;;;;;20.38;2.75;;;5.20;71.60;;;;;;4094104;28;20094;-86
2022/04/04 02:56:29;;;;;;;12.70;2.03;;;5.30;71.50;;;;;;4109530;28;20053;-83
2022/04/04 02:58:30;;;;;;;9.50;1.90;;;5.30;71.50;;;;;;4111361;28;20468;-83
2022/04/04 03:00:33;;;;;;;;;;;5.30;71.60;;;;;;4110587;28;20023;-86
2022/04/04 03:02:35;;;;;;;13.02;1.98;;;5.30;71.70;;;;;;4110169;28;19933;-85
2022/04/04 03:04:36;;;;;;;18.90;1.98;;;5.30;71.50;;;;;;4076553;29;20034;-88
2022/04/04 03:06:37;;;;;;;7.50;1.85;;;5.30;71.60;;;;;;4110526;28;20067;-86
2022/04/04 03:08:37;;;;;;;14.98;2.15;;;5.30;71.70;;;;;;4099546;28;20130;-86
2022/04/04 03:10:38;;;;;;;16.90;2.80;;;5.30;71.90;;;;;;4117648;28;20134;-85
2022/04/04 03:12:46;;;;;;;10.13;2.17;;;5.30;72.00;;;;;;4100288;28;20035;-85
2022/04/04 03:14:47;;;;;;;14.02;2.90;;;5.30;72.20;;;;;;4129961;28;20038;-83
2022/04/04 03:16:48;;;;;;;18.15;2.50;;;5.30;72.30;;;;;;4116837;28;20576;-86
2022/04/04 03:18:49;;;;;;;17.38;3.03;;;5.30;72.40;;;;;;4121063;28;20019;-84
2022/04/04 03:20:50;;;;;;;13.43;2.75;;;5.30;72.50;;;;;;4113233;28;20031;-83
2022/04/04 03:22:54;;;;;;;18.45;2.58;;;5.30;72.50;;;;;;4116528;28;20029;-85
2022/04/04 03:24:55;;;;;;;21.17;3.38;;;5.30;72.60;;;;;;4131113;28;20066;-85
2022/04/04 03:26:55;;;;;;;21.42;3.25;;;5.30;72.90;;;;;;4132384;28;20475;-86
2022/04/04 03:28:56;;;;;;;19.25;2.95;;;5.40;73.00;;;;;;4133535;28;20026;-84
2022/04/04 03:30:57;;;;;;;20.85;3.28;;;5.30;73.10;;;;;;4120100;28;20023;-85
2022/04/04 03:32:59;;;;;;;18.17;2.90;;;5.30;73.30;;;;;;4119167;28;20036;-86
2022/04/04 03:35:00;;;;;;;13.63;3.63;;;5.30;73.20;;;;;;4115976;28;20036;-87
2022/04/04 03:37:01;;;;;;;15.40;3.00;;;5.30;73.20;;;;;;4117798;28;20043;-86
2022/04/04 03:39:02;;;;;;;28.30;4.05;;;5.30;73.30;;;;;;4111974;28;20031;-86
2022/04/04 03:41:03;;;;;;;18.35;4.07;;;5.30;73.20;;;;;;4136501;28;20380;-85
2022/04/04 03:43:04;;;;;;;17.23;3.50;;;5.30;73.20;;;;;;4134832;28;20026;-86
2022/04/04 03:45:05;;;;;;;21.73;3.53;;;5.30;73.20;;;;;;4115040;28;20027;-87
2022/04/04 03:47:07;;;;;;;9.25;3.60;;;5.20;73.30;;;;;;4128896;28;20039;-88
2022/04/04 03:49:08;;;;;;;15.98;3.47;;;5.20;73.30;;;;;;4114675;28;20580;-85
2022/04/04 03:51:09;;;;;;;20.08;3.95;;;5.30;73.30;;;;;;4133612;28;20094;-84
2022/04/04 03:53:16;;;;;;;18.10;3.50;;;5.30;73.30;;;;;;4113648;28;20038;-83
2022/04/04 03:55:20;;;;;;;21.50;4.15;;;5.30;73.40;;;;;;4129544;28;20030;-85
2022/04/04 03:57:23;;;;;;;19.40;4.10;;;5.20;73.50;;;;;;4096751;28;20078;-85
2022/04/04 03:59:25;;;;;;;19.95;4.10;;;5.20;73.30;;;;;;4113662;28;20031;-84
2022/04/04 04:01:28;;;;;;;18.15;3.88;;;5.20;73.50;;;;;;4133875;28;20038;-84
2022/04/04 04:03:29;;;;;;;19.80;4.18;;;5.20;73.70;;;;;;4117826;28;20118;-84
2022/04/04 04:05:30;;;;;;;23.50;3.97;;;5.20;73.80;;;;;;4122449;28;20034;-84
2022/04/04 04:07:31;;;;;;;18.15;4.38;;;5.10;73.80;;;;;;4133441;28;20520;-85
2022/04/04 04:09:32;;;;;;;14.65;3.88;;;5.10;73.80;;;;;;4097995;28;20041;-84
2022/04/04 04:11:35;;;;;;;;;;;5.20;74.00;;;;;;4119836;28;20042;-84
2022/04/04 04:13:36;;;;;;;16.15;4.13;;;5.10;74.30;;;;;;4129063;28;19919;-84
2022/04/04 04:15:37;;;;;;;16.33;3.92;;;5.10;73.90;;;;;;4129734;28;20153;-87
2022/04/04 04:17:40;;;;;;;;;;;5.20;74.10;;;;;;4110203;28;20113;-83
2022/04/04 04:22:00;;;;;;;24.13;5.20;;;5.10;73.80;;;;;;4128601;28;20491;-85
2022/04/04 04:24:01;;;;;;;16.58;4.40;;;5.20;74.10;;;;;;4094077;28;20027;-84
2022/04/04 04:26:06;;;;;;;18.75;4.65;;;5.10;74.10;;;;;;4107498;28;20022;-84
2022/04/04 04:28:07;;;;;;;25.60;5.00;;;5.10;74.10;;;;;;4123625;28;20022;-85
2022/04/04 04:30:08;;;;;;;19.73;5.10;;;5.10;74.20;;;;;;4122927;28;20378;-83
2022/04/04 04:32:09;;;;;;;19.92;5.50;;;5.00;74.20;;;;;;4126274;28;20031;-83
2022/04/04 04:34:10;;;;;;;16.05;6.10;;;5.10;74.40;;;;;;4092708;28;20042;-83
2022/04/04 04:36:12;;;;;;;17.33;5.85;;;5.10;74.50;;;;;;4094127;28;20031;-84
2022/04/04 04:38:13;;;;;;;21.35;6.22;;;5.00;74.30;;;;;;4119629;28;20084;-84
2022/04/04 04:40:17;;;;;;;11.70;5.45;;;5.00;74.40;;;;;;4120877;28;20035;-83
2022/04/04 04:42:20;;;;;;;22.33;6.00;;;5.00;74.60;;;;;;4112294;28;20035;-84
2022/04/04 04:44:21;;;;;;;16.33;6.13;;;5.00;75.50;;;;;;4110579;28;20304;-83
2022/04/04 04:46:24;;;;;;;17.88;6.47;;;5.10;74.70;;;;;;4092202;28;20053;-83
2022/04/04 04:48:24;;;;;;;14.52;6.68;;;4.90;74.80;;;;;;4105673;28;20492;-84
2022/04/04 04:50:26;;;;;;;16.13;5.97;;;5.00;74.80;;;;;;4121845;28;20046;-83
2022/04/04 04:52:28;;;;;;;18.55;6.53;;;5.00;74.80;;;;;;4107040;28;20098;-84
2022/04/04 04:54:30;;;;;;;17.83;6.43;;;5.00;75.00;;;;;;4076091;29;20055;-84
2022/04/04 04:56:31;;;;;;;20.85;6.85;;;5.00;74.90;;;;;;4093860;28;20123;-84
2022/04/04 04:58:35;;;;;;;15.93;5.97;;;4.90;75.10;;;;;;4094768;28;20078;-85
2022/04/04 05:00:37;;;;;;;14.95;6.70;;;4.90;75.10;;;;;;4115971;28;20098;-83
2022/04/04 05:02:38;;;;;;;24.70;7.15;;;4.90;75.20;;;;;;4133097;28;20236;-83
2022/04/04 05:04:39;;;;;;;21.63;7.85;;;4.90;75.40;;;;;;4115010;28;20103;-85
2022/04/04 05:06:40;;;;;;;17.17;6.40;;;4.80;75.60;;;;;;4096560;28;20023;-84
2022/04/04 05:08:41;;;;;;;13.60;6.90;;;4.80;75.50;;;;;;4126836;28;20030;-84
2022/04/04 05:10:42;;;;;;;17.40;6.07;;;4.80;75.50;;;;;;4128730;28;20070;-84
2022/04/04 05:12:45;;;;;;;15.80;6.72;;;4.90;75.50;;;;;;4096923;28;20041;-85
2022/04/04 05:14:48;;;;;;;14.40;7.03;;;4.70;75.50;;;;;;4130943;28;20690;-84
2022/04/04 05:16:48;;;;;;;15.55;7.10;;;4.80;75.60;;;;;;4116456;28;20038;-83
2022/04/04 05:18:49;;;;;;;12.40;6.90;;;4.80;75.70;;;;;;4131754;28;20033;-83
2022/04/04 05:20:50;;;;;;;17.90;6.75;;;4.80;75.60;;;;;;4117328;28;20085;-84
2022/04/04 05:22:54;;;;;;;15.77;6.88;;;4.70;75.70;;;;;;4096328;28;20055;-84
2022/04/04 05:24:57;;;;;;;15.75;7.78;;;4.70;75.60;;;;;;4110628;28;20030;-86
2022/04/04 05:26:58;;;;;;;16.40;7.38;;;4.70;75.90;;;;;;4096365;28;20027;-84
2022/04/04 05:28:59;;;;;;;13.82;7.65;;;4.70;75.80;;;;;;4129028;28;20395;-84
2022/04/04 05:31:01;;;;;;;19.02;8.30;;;4.70;75.80;;;;;;4127374;28;20026;-86
2022/04/04 05:33:02;;;;;;;19.17;8.40;;;4.70;75.90;;;;;;4113497;28;20069;-86
2022/04/04 05:35:06;;;;;;;14.75;8.05;;;4.70;76.00;;;;;;4111836;28;20042;-84
2022/04/04 05:37:07;;;;;;;20.25;8.55;;;4.60;76.30;;;;;;4127119;28;20030;-83
2022/04/04 05:39:08;;;;;;;14.95;7.93;;;4.60;76.20;;;;;;4131422;28;20035;-83
2022/04/04 05:41:09;;;;;;;15.27;8.02;;;4.60;76.40;;;;;;4114342;28;20109;-84
2022/04/04 05:43:10;;;;;;;19.08;7.65;;;4.60;76.20;;;;;;4127264;28;20033;-84
2022/04/04 05:45:10;;;;;;;15.00;8.05;;;4.70;76.50;;;;;;4110738;28;20027;-84
2022/04/04 05:47:13;;;;;;;17.00;8.30;;;4.60;76.50;;;;;;4129643;28;20038;-83
2022/04/04 05:49:20;;;;;;;20.00;8.70;;;4.70;76.60;;;;;;4129568;28;20038;-84
2022/04/04 05:51:21;;;;;;;14.40;8.25;;;4.70;76.60;;;;;;4110723;28;20022;-84
2022/04/04 05:53:22;;;;;;;20.33;8.90;;;4.60;76.70;;;;;;4130239;28;20388;-84
2022/04/04 05:55:23;;;;;;;23.83;8.57;;;4.60;76.80;;;;;;4111123;28;20032;-87
2022/04/04 05:57:27;;;;;;;14.57;8.18;;;4.60;77.00;;;;;;4098769;28;20039;-85
2022/04/04 05:59:28;;;;;;;16.33;8.20;;;4.60;77.10;;;;;;4129475;28;20101;-86
2022/04/04 06:01:36;;;;;;;18.52;8.25;;;4.60;77.10;;;;;;4115530;28;20027;-84
2022/04/04 06:03:37;;;;;;;14.63;8.18;;;4.70;77.30;;;;;;4113183;28;20475;-82
2022/04/04 06:05:38;;;;;;;16.27;7.95;;;4.60;77.40;;;;;;4129091;28;20023;-85
2022/04/04 06:07:39;;;;;;;13.63;8.00;;;4.50;78.20;;;;;;4094036;28;20481;-84
2022/04/04 06:09:40;;;;;;;16.35;7.63;;;4.70;77.50;;;;;;4124242;28;20053;-84
2022/04/04 06:11:41;;;;;;;15.63;7.85;;;4.60;77.50;;;;;;4123341;28;20046;-86
2022/04/04 06:13:42;;;;;;;14.10;7.20;;;4.60;77.70;;;;;;4127140;28;20030;-87
2022/04/04 06:15:44;;;;;;;18.35;7.45;;;4.50;77.60;;;;;;4078272;28;20043;-84
2022/04/04 06:17:45;;;;;;;17.13;6.88;;;4.60;77.60;;;;;;4124157;28;20030;-84
2022/04/04 06:19:45;;;;;;;13.38;6.85;;;4.50;77.60;;;;;;4126605;28;20425;-84
2022/04/04 06:21:49;;;;;;;12.60;6.93;;;4.60;78.40;;;;;;4092841;28;20548;-83
2022/04/04 06:23:59;;;;;;;16.42;8.25;;;4.50;77.80;;;;;;4111770;28;20039;-85
2022/04/04 06:26:05;;;;;;;15.60;7.93;;;4.50;77.80;;;;;;4130320;28;20365;-85
2022/04/04 06:28:09;;;;;;;14.65;7.68;;;4.50;77.80;;;;;;4118009;28;20022;-84
2022/04/04 06:30:10;;;;;;;20.10;7.03;;;4.60;78.10;;;;;;4100174;28;20066;-85
2022/04/04 06:32:11;;;;;;;18.52;8.00;;;4.60;78.20;;;;;;4131389;28;20033;-84
2022/04/04 06:34:15;;;;;;;13.40;7.13;;;4.60;78.40;;;;;;4100214;28;20024;-83
2022/04/04 06:36:16;;;;;;;11.48;5.43;;;4.60;78.80;;;;;;4100885;28;20154;-85
2022/04/04 06:38:19;;;;;;;11.35;4.35;;;4.60;78.90;;;;;;4097639;28;20087;-81
2022/04/04 06:40:21;;;;;;;9.20;4.10;;;4.60;79.40;;;;;;4112266;28;20022;-85
2022/04/04 06:42:23;;;;;;;8.18;3.42;;;4.50;78.50;;;;;;4118782;28;20034;-86
2022/04/04 06:44:27;;;;;;;11.20;3.50;;;4.60;78.70;;;;;;4134116;28;20404;-85
2022/04/04 06:46:28;;;;;;;7.28;3.60;;;4.60;78.60;;;;;;4131465;28;21901;-85
2022/04/04 06:48:31;;;;;;;11.60;2.42;;;4.60;78.60;;;;;;4086116;28;20536;-82
2022/04/04 06:50:32;;;;;;;7.60;3.30;;;4.60;78.40;;;;;;4129711;28;20113;-86
2022/04/04 06:52:33;;;;;;;6.93;3.42;;;4.60;78.40;;;;;;4096216;28;20035;-86
2022/04/04 06:54:41;;;;;;;6.18;2.95;;;4.60;78.30;;;;;;4097442;28;20034;-85
2022/04/04 06:56:42;;;;;;;7.57;3.40;;;4.50;78.20;;;;;;4112658;28;20038;-83
2022/04/04 06:58:42;;;;;;;9.93;3.35;;;4.50;78.10;;;;;;4126099;28;20040;-88
2022/04/04 07:00:45;;;;;;;7.97;2.90;;;4.50;78.20;;;;;;4113442;28;20056;-84
2022/04/04 07:02:49;;;;;;;4.95;2.85;;;4.60;78.30;;;;;;4095557;28;20168;-85
2022/04/04 07:04:50;;;;;;;6.85;3.83;;;4.50;78.30;;;;;;4113758;28;20038;-81
2022/04/04 07:06:51;;;;;;;9.85;3.08;;;4.50;78.30;;;;;;4097073;28;20090;-84
2022/04/04 07:08:52;;;;;;;6.57;2.90;;;4.60;78.40;;;;;;4129231;28;20038;-83
2022/04/04 07:10:56;;;;;;;7.95;3.03;;;4.50;78.60;;;;;;4100637;28;20038;-84
2022/04/04 07:13:05;;;;;;;8.80;2.70;;;4.60;78.70;;;;;;4101809;28;20030;-84
2022/04/04 07:15:08;;;;;;;5.88;2.55;;;4.60;78.80;;;;;;4111154;28;20031;-85
2022/04/04 07:17:09;;;;;;;5.75;1.67;;;4.50;78.70;;;;;;4117061;28;20034;-87
2022/04/04 07:19:15;;;;;;;7.55;2.10;;;4.60;79.40;;;;;;4114424;28;20054;-84
2022/04/04 07:21:19;;;;;;;8.60;2.10;;;4.50;78.90;;;;;;4110702;28;20119;-86
2022/04/04 07:23:25;;;;;;;5.72;2.25;;;4.50;78.90;;;;;;4083932;29;20076;-86
2022/04/04 07:25:28;;;;;;;6.88;2.95;;;4.60;79.10;;;;;;4084780;29;20027;-82
2022/04/04 07:27:29;;;;;;;9.93;2.17;;;4.60;79.00;;;;;;4111546;28;20038;-83
2022/04/04 07:29:30;;;;;;;10.20;2.55;;;4.50;79.00;;;;;;4131573;28;20461;-84
2022/04/04 07:31:31;;;;;;;6.22;1.80;;;4.60;78.90;;;;;;4114282;28;20183;-88
2022/04/04 07:33:32;;;;;;;6.00;1.58;;;4.60;79.10;;;;;;4083048;29;20035;-85
2022/04/04 07:35:33;;;;;;;7.43;1.10;;;4.50;78.90;;;;;;4097177;28;20516;-85
2022/04/04 07:37:33;;;;;;;6.60;1.20;;;4.60;79.10;;;;;;4114989;28;20382;-90
2022/04/04 07:39:40;;;;;;;6.38;1.20;;;4.50;79.00;;;;;;4113846;28;20038;-86
2022/04/04 07:41:48;;;;;;;4.20;1.20;;;4.50;79.90;;;;;;4140075;28;20034;-89
2022/04/04 07:43:49;;;;;;;7.43;0.90;;;4.60;79.20;;;;;;4129869;28;20081;-86
2022/04/04 07:45:50;;;;;;;6.68;1.10;;;4.60;79.20;;;;;;4118946;28;20039;-88
2022/04/04 07:47:55;;;;;;;4.80;1.15;;;4.60;79.10;;;;;;4102277;28;20031;-84
2022/04/04 07:49:58;;;;;;;4.32;1.05;;;4.60;79.10;;;;;;4102382;28;20028;-86
2022/04/04 07:51:59;;;;;;;8.20;1.30;;;4.70;79.20;;;;;;4130671;28;20054;-86
2022/04/04 07:54:00;;;;;;;8.98;1.38;;;4.70;79.20;;;;;;4112072;28;20556;-87
2022/04/04 07:56:01;;;;;;;11.95;1.45;;;4.70;79.30;;;;;;4130137;28;20041;-82
2022/04/04 07:58:02;;;;;;;8.05;1.40;;;4.70;79.10;;;;;;4131376;28;20027;-88
2022/04/04 08:00:04;;;;;;;10.52;1.58;;;4.70;79.10;;;;;;4133404;28;20026;-86
2022/04/04 08:02:10;;;;;;;6.05;1.23;;;4.60;79.10;;;;;;4133635;28;20034;-85
2022/04/04 08:04:15;;;;;;;4.97;1.20;;;4.70;79.20;;;;;;4127612;28;20018;-87
2022/04/04 08:06:15;;;;;;;9.25;1.30;;;4.70;79.20;;;;;;4120395;28;20038;-86
2022/04/04 08:08:58;;;;;;;8.73;1.50;;;4.70;79.10;;;;;;4092829;28;20022;-89
2022/04/04 08:11:00;;;;;;;5.30;0.82;;;4.70;79.10;;;;;;4115542;28;20038;-87
2022/04/04 08:13:00;;;;;;;9.77;1.27;;;4.60;78.90;;;;;;4130302;28;20053;-87
2022/04/04 08:15:02;;;;;;;11.15;1.70;;;4.70;79.10;;;;;;4078283;29;20031;-87
2022/04/04 08:17:04;;;;;;;6.35;1.40;;;4.60;79.20;;;;;;4129726;28;20022;-87
2022/04/04 08:19:04;;;;;;;7.45;1.35;;;4.70;79.40;;;;;;4128772;28;20852;-89
2022/04/04 08:21:05;;;;;;;7.78;1.30;;;4.50;79.50;;;;;;4114636;28;20866;-86
2022/04/04 08:23:09;;;;;;;8.13;1.38;;;4.60;79.60;;;;;;4097388;28;20027;-84
2022/04/04 08:25:14;;;;;;;9.68;1.77;;;4.60;79.70;;;;;;4115697;28;20557;-84
2022/04/04 08:27:15;;;;;;;12.47;1.20;;;4.60;79.50;;;;;;4107735;28;20026;-88
2022/04/04 08:29:25;;;;;;;5.88;1.10;;;4.70;79.60;;;;;;4113310;28;20288;-82
2022/04/04 08:31:29;;;;;;;7.35;1.10;;;4.70;79.70;;;;;;4115109;28;20134;-85
2022/04/04 08:33:30;;;;;;;7.65;1.20;;;4.60;79.40;;;;;;4127800;28;20408;-84
2022/04/04 08:35:31;;;;;;;5.38;1.30;;;4.70;79.40;;;;;;4094225;28;20084;-84
2022/04/04 08:37:33;;;;;;;8.13;1.38;;;4.70;79.40;;;;;;4108278;28;20031;-85
2022/04/04 08:39:34;;;;;;;5.40;1.10;;;4.70;79.20;;;;;;4128379;28;20036;-84
2022/04/04 08:41:41;;;;;;;8.32;1.50;;;4.70;79.20;;;;;;4111491;28;20041;-88
2022/04/04 08:46:24;;;;;;;4.57;1.08;;;4.60;79.10;;;;;;4050631;29;20044;-85
2022/04/04 08:48:32;;;;;;;6.57;1.23;;;4.80;79.20;;;;;;4033145;29;20100;-85
2022/04/04 08:50:37;;;;;;;6.38;1.60;;;4.70;79.20;;;;;;4050552;29;20045;-86
2022/04/04 08:53:04;;;;;;;6.72;1.10;;;4.80;79.00;;;;;;4015497;29;20041;-88
2022/04/04 08:55:06;;;;;;;4.82;1.05;;;4.70;79.40;;;;;;4006976;29;20535;-87
2022/04/04 08:57:16;;;;;;;5.03;1.75;;;4.60;79.30;;;;;;4005255;29;20545;-88
2022/04/04 08:59:17;;;;;;;7.30;1.30;;;4.70;79.40;;;;;;4013158;29;20396;-88
2022/04/04 09:01:36;;;;;;;7.43;1.40;;;4.70;79.60;;;;;;4008507;29;20033;-86
2022/04/04 09:03:37;;;;;;;5.03;1.40;;;4.70;79.60;;;;;;4023375;29;20036;-84
2022/04/04 09:05:56;;;;;;;5.38;1.05;;;4.70;79.50;;;;;;4009566;29;20511;-86
2022/04/04 09:08:04;;;;;;;10.85;1.40;;;4.70;79.70;;;;;;4001203;29;20884;-85
2022/04/04 09:10:19;;;;;;;4.93;1.40;;;4.60;79.60;;;;;;3999365;29;20056;-83
2022/04/04 09:12:26;;;;;;;3.58;1.20;;;4.70;79.70;;;;;;4002292;29;20832;-88
2022/04/04 09:26:33;;;;;;;11.95;1.70;;;3.80;79.80;;;;;;4203044;27;20430;-83
2022/04/04 09:29:41;;;;;;;9.35;1.75;;;3.90;80.30;;;;;;4157313;27;2006749;-85
2022/04/04 09:32:14;;;;;;;11.50;1.55;;;3.90;80.40;;;;;;4220772;28;20127;-85
2022/04/04 09:34:15;;;;;;;8.43;1.90;;;3.90;80.80;;;;;;4219614;28;20035;-84
2022/04/04 09:36:22;;;;;;;7.60;1.60;;;3.90;81.00;;;;;;4215172;28;20028;-92
2022/04/04 09:39:02;;;;;;;7.45;1.63;;;4.00;81.30;;;;;;4240504;28;20034;-91
2022/04/04 09:41:37;;;;;;;9.70;1.50;;;3.90;81.80;;;;;;4134841;28;20406;-90
2022/04/04 09:43:57;;;;;;;8.48;2.25;;;4.10;82.00;;;;;;4235645;27;20135;-90
2022/04/04 09:46:10;;;;;;;15.88;2.28;;;4.00;82.10;;;;;;4222054;28;20024;-91
2022/04/04 09:48:35;;;;;;;9.73;1.75;;;4.10;82.40;;;;;;4252575;27;20077;-90
2022/04/04 09:50:49;;;;;;;13.90;1.83;;;4.10;82.30;;;;;;4215331;28;20028;-91
2022/04/04 09:52:51;;;;;;;6.97;2.15;;;4.20;82.50;;;;;;4218964;28;20062;-93
2022/04/04 09:54:54;;;;;;;7.90;1.80;;;4.20;82.50;;;;;;4219995;28;20081;-92
2022/04/04 09:57:16;;;;;;;15.20;1.80;;;4.20;82.90;;;;;;4234150;28;20546;-92
2022/04/04 09:59:24;;;;;;;5.45;1.55;;;4.30;83.10;;;;;;4216428;28;20024;-92
2022/04/04 10:01:27;;;;;;;10.27;1.70;;;4.30;83.00;;;;;;4233825;27;20035;-91
2022/04/04 10:03:30;;;;;;;8.18;2.05;;;4.40;83.10;;;;;;4232532;28;20083;-89
2022/04/04 10:05:42;;;;;;;9.23;1.83;;;4.40;83.20;;;;;;4239251;28;20059;-93
2022/04/04 10:07:47;;;;;;;4.97;1.48;;;4.40;83.20;;;;;;4233413;28;20027;-92
2022/04/04 10:09:57;;;;;;;7.40;1.73;;;4.50;83.40;;;;;;4228198;27;20045;-91
2022/04/04 10:12:05;;;;;;;8.60;1.65;;;4.50;83.40;;;;;;4215638;28;20023;-91
2022/04/04 10:14:16;;;;;;;6.18;1.48;;;4.50;83.50;;;;;;4197743;22;20049;-84
2022/04/04 10:16:17;;;;;;;8.25;1.77;;;4.70;83.80;;;;;;4188091;28;20116;-87
2022/04/04 10:18:18;;;;;;;12.15;2.22;;;4.70;84.50;;;;;;4208054;28;20060;-87
2022/04/04 10:20:20;;;;;;;5.70;1.20;;;4.70;83.70;;;;;;4191085;28;20514;-87
2022/04/04 10:22:36;;;;;;;10.57;2.03;;;4.80;83.80;;;;;;4209319;28;20081;-87
2022/04/04 10:24:38;;;;;;;8.98;1.52;;;4.70;83.80;;;;;;4174656;28;20104;-86
2022/04/04 10:27:29;;;;;;;10.77;1.90;;;4.80;83.90;;;;;;4175024;28;20036;-84
2022/04/04 10:29:44;;;;;;;11.00;2.05;;;4.90;83.90;;;;;;4171042;28;20124;-84
2022/04/04 10:31:53;;;;;;;10.07;1.58;;;4.90;84.00;;;;;;4153980;28;20030;-85
2022/04/04 10:34:09;;;;;;;6.10;1.55;;;5.00;84.30;;;;;;4152318;28;20193;-85
2022/04/04 10:36:24;;;;;;;7.65;1.42;;;5.00;84.10;;;;;;4172336;28;20038;-86
2022/04/04 10:38:39;;;;;;;7.28;1.33;;;4.90;84.20;;;;;;4174361;28;20191;-84
2022/04/04 10:40:40;;;;;;;6.57;1.45;;;5.00;84.40;;;;;;4153116;28;20068;-86
2022/04/04 10:42:43;;;;;;;6.05;1.27;;;5.10;84.50;;;;;;4133606;28;20035;-86
2022/04/04 10:44:50;;;;;;;10.07;1.90;;;5.10;84.60;;;;;;4164490;28;20041;-84
2022/04/04 10:47:22;;;;;;;6.35;1.15;;;5.10;84.70;;;;;;4143189;28;20060;-86
2022/04/04 10:49:53;;;;;;;6.47;1.20;;;5.20;84.80;;;;;;4134986;28;20045;-89
2022/04/04 10:52:11;;;;;;;12.57;1.30;;;5.20;84.70;;;;;;4127297;28;20037;-87
2022/04/04 10:54:12;;;;;;;6.00;1.10;;;5.30;84.80;;;;;;4137599;28;20404;-87
2022/04/04 10:56:38;;;;;;;7.25;1.08;;;5.30;84.90;;;;;;4158630;28;20029;-87
2022/04/04 10:58:41;;;;;;;7.93;1.10;;;5.30;84.70;;;;;;4157222;28;20277;-85
2022/04/04 11:01:14;;;;;;;4.18;0.98;;;5.40;84.80;;;;;;4161197;28;20065;-86
2022/04/04 11:03:26;;;;;;;6.85;1.05;;;5.40;84.80;;;;;;4142023;28;20482;-85
2022/04/04 11:07:58;;;;;;;5.53;1.08;;;5.50;84.80;;;;;;4196270;28;20345;-87
2022/04/04 11:10:06;;;;;;;5.10;0.90;;;5.60;84.80;;;;;;4163525;28;20407;-88
2022/04/04 11:12:11;;;;;;;4.95;0.85;;;5.60;84.80;;;;;;4161433;28;20055;-88